KBYS

Bicycle Lake AAF Airport

Fort Irwin/Barstow, California, USA
METAR KBYS 231955Z AUTO VRB04KT 10SM CLR 27/04 A2997 RMK AO2 SLP124 WND DATA ESTMD T02670038
Observed Flight Rules
Oct-23 @ 19:55 UTC (37 minutes ago) Visual Flight Rules
Wind Visibility Clouds
Variable at 4 knots 10 miles
  • Clear skies
Temperatures Readings
Current 27°C / 81°F
Dewpoint 4°C / 39°F
Humidity 23%
Altimeter 29.97" Hg
Pressure 1012.4 hPa
Elevation 716
METAR KBYS 231955Z AUTO VRB04KT 10SM CLR 27/04 A2997 RMK AO2 SLP124 WND DATA ESTMD T02670038
Observed Flight Rules
Oct-23 @ 19:55 UTC
(37 minutes ago)
VFR
Wind Visibility
Variable at 4 knots 10 miles
Clouds
  • Clear skies
Temperature Dewpoint
27°C / 81°F 4°C / 39°F
Humidity Altimeter Pressure
23% 29.97" Hg 1012.4 hPa